sensor_id;sensor_type;location;lat;lon;timestamp;temperature;humidity
22167;DHT22;11249;52.468;13.776;2023-06-10T00:01:40;17.10;99.90
22167;DHT22;11249;52.468;13.776;2023-06-10T00:04:08;17.00;99.90
22167;DHT22;11249;52.468;13.776;2023-06-10T00:06:35;17.00;99.90
22167;DHT22;11249;52.468;13.776;2023-06-10T00:09:05;16.90;99.90
22167;DHT22;11249;52.468;13.776;2023-06-10T00:11:32;16.90;99.90
22167;DHT22;11249;52.468;13.776;2023-06-10T00:13:59;16.80;99.90
22167;DHT22;11249;52.468;13.776;2023-06-10T00:16:27;16.80;99.90
22167;DHT22;11249;52.468;13.776;2023-06-10T00:18:54;16.70;99.90
22167;DHT22;11249;52.468;13.776;2023-06-10T00:21:28;16.60;99.90
22167;DHT22;11249;52.468;13.776;2023-06-10T00:23:55;16.60;99.90
22167;DHT22;11249;52.468;13.776;2023-06-10T00:26:22;16.50;99.90
22167;DHT22;11249;52.468;13.776;2023-06-10T00:28:50;16.40;99.90
22167;DHT22;11249;52.468;13.776;2023-06-10T00:31:17;16.40;99.90
22167;DHT22;11249;52.468;13.776;2023-06-10T00:33:44;16.30;99.90
22167;DHT22;11249;52.468;13.776;2023-06-10T00:36:10;16.20;99.90
22167;DHT22;11249;52.468;13.776;2023-06-10T00:38:37;16.20;99.90
22167;DHT22;11249;52.468;13.776;2023-06-10T00:41:04;16.20;99.90
22167;DHT22;11249;52.468;13.776;2023-06-10T00:43:31;16.10;99.90
22167;DHT22;11249;52.468;13.776;2023-06-10T00:45:57;16.10;99.90
22167;DHT22;11249;52.468;13.776;2023-06-10T00:48:24;16.00;99.90
22167;DHT22;11249;52.468;13.776;2023-06-10T00:50:52;16.00;99.90
22167;DHT22;11249;52.468;13.776;2023-06-10T00:53:19;16.00;99.90
22167;DHT22;11249;52.468;13.776;2023-06-10T00:55:47;16.00;99.90
22167;DHT22;11249;52.468;13.776;2023-06-10T00:58:15;15.90;99.90
22167;DHT22;11249;52.468;13.776;2023-06-10T01:00:42;15.90;99.90
22167;DHT22;11249;52.468;13.776;2023-06-10T01:03:09;15.80;99.90
22167;DHT22;11249;52.468;13.776;2023-06-10T01:05:36;15.70;99.90
22167;DHT22;11249;52.468;13.776;2023-06-10T01:08:09;15.70;99.90
22167;DHT22;11249;52.468;13.776;2023-06-10T01:10:49;15.60;99.90
22167;DHT22;11249;52.468;13.776;2023-06-10T01:13:17;15.60;99.90
22167;DHT22;11249;52.468;13.776;2023-06-10T01:15:45;15.60;99.90
22167;DHT22;11249;52.468;13.776;2023-06-10T01:18:11;15.50;99.90
22167;DHT22;11249;52.468;13.776;2023-06-10T01:20:42;15.50;99.90
22167;DHT22;11249;52.468;13.776;2023-06-10T01:23:11;15.50;99.90
22167;DHT22;11249;52.468;13.776;2023-06-10T01:25:40;15.40;99.90
22167;DHT22;11249;52.468;13.776;2023-06-10T01:28:25;15.40;99.90
22167;DHT22;11249;52.468;13.776;2023-06-10T01:30:55;15.30;99.90
22167;DHT22;11249;52.468;13.776;2023-06-10T01:33:29;15.30;99.90
22167;DHT22;11249;52.468;13.776;2023-06-10T01:35:59;15.30;99.90
22167;DHT22;11249;52.468;13.776;2023-06-10T01:38:27;15.20;99.90
22167;DHT22;11249;52.468;13.776;2023-06-10T01:40:57;15.20;99.90
22167;DHT22;11249;52.468;13.776;2023-06-10T01:43:24;15.20;99.90
22167;DHT22;11249;52.468;13.776;2023-06-10T01:45:51;15.20;99.90
22167;DHT22;11249;52.468;13.776;2023-06-10T01:48:18;15.10;99.90
22167;DHT22;11249;52.468;13.776;2023-06-10T01:50:44;15.20;99.90
22167;DHT22;11249;52.468;13.776;2023-06-10T01:53:12;15.10;99.90
22167;DHT22;11249;52.468;13.776;2023-06-10T01:55:39;15.10;99.90
22167;DHT22;11249;52.468;13.776;2023-06-10T01:58:06;15.10;99.90
22167;DHT22;11249;52.468;13.776;2023-06-10T02:00:32;15.10;99.90
22167;DHT22;11249;52.468;13.776;2023-06-10T02:03:00;15.10;99.90
22167;DHT22;11249;52.468;13.776;2023-06-10T02:05:27;15.10;99.90
22167;DHT22;11249;52.468;13.776;2023-06-10T02:07:54;15.10;99.90
22167;DHT22;11249;52.468;13.776;2023-06-10T02:10:20;15.00;99.90
22167;DHT22;11249;52.468;13.776;2023-06-10T02:12:47;15.00;99.90
22167;DHT22;11249;52.468;13.776;2023-06-10T02:15:14;14.90;99.90
22167;DHT22;11249;52.468;13.776;2023-06-10T02:17:41;14.90;99.90
22167;DHT22;11249;52.468;13.776;2023-06-10T02:20:08;14.90;99.90
22167;DHT22;11249;52.468;13.776;2023-06-10T02:22:37;14.90;99.90
22167;DHT22;11249;52.468;13.776;2023-06-10T02:25:05;14.80;99.90
22167;DHT22;11249;52.468;13.776;2023-06-10T02:27:32;14.80;99.90
22167;DHT22;11249;52.468;13.776;2023-06-10T02:29:59;14.80;99.90
22167;DHT22;11249;52.468;13.776;2023-06-10T02:32:26;14.80;99.90
22167;DHT22;11249;52.468;13.776;2023-06-10T02:34:53;14.80;99.90
22167;DHT22;11249;52.468;13.776;2023-06-10T02:37:20;14.70;99.90
22167;DHT22;11249;52.468;13.776;2023-06-10T02:39:47;14.80;99.90
22167;DHT22;11249;52.468;13.776;2023-06-10T02:42:13;14.80;99.90
22167;DHT22;11249;52.468;13.776;2023-06-10T02:44:40;14.80;99.90
22167;DHT22;11249;52.468;13.776;2023-06-10T02:47:07;14.80;99.90
22167;DHT22;11249;52.468;13.776;2023-06-10T02:49:34;14.80;99.90
22167;DHT22;11249;52.468;13.776;2023-06-10T02:52:00;14.70;99.90
22167;DHT22;11249;52.468;13.776;2023-06-10T02:54:27;14.70;99.90
22167;DHT22;11249;52.468;13.776;2023-06-10T02:56:54;14.70;99.90
22167;DHT22;11249;52.468;13.776;2023-06-10T02:59:22;14.70;99.90
22167;DHT22;11249;52.468;13.776;2023-06-10T03:01:49;14.70;99.90
22167;DHT22;11249;52.468;13.776;2023-06-10T03:04:16;14.70;99.90
22167;DHT22;11249;52.468;13.776;2023-06-10T03:06:42;14.70;99.90
22167;DHT22;11249;52.468;13.776;2023-06-10T03:09:09;14.70;99.90
22167;DHT22;11249;52.468;13.776;2023-06-10T03:11:36;14.70;99.90
22167;DHT22;11249;52.468;13.776;2023-06-10T03:14:03;14.70;99.90
22167;DHT22;11249;52.468;13.776;2023-06-10T03:16:30;14.70;99.90
22167;DHT22;11249;52.468;13.776;2023-06-10T03:18:58;14.70;99.90
22167;DHT22;11249;52.468;13.776;2023-06-10T03:21:24;14.70;99.90
22167;DHT22;11249;52.468;13.776;2023-06-10T03:23:52;14.60;99.90
22167;DHT22;11249;52.468;13.776;2023-06-10T03:26:19;14.60;99.90
22167;DHT22;11249;52.468;13.776;2023-06-10T03:28:48;14.60;99.90
22167;DHT22;11249;52.468;13.776;2023-06-10T03:31:15;14.60;99.90
22167;DHT22;11249;52.468;13.776;2023-06-10T03:33:43;14.60;99.90
22167;DHT22;11249;52.468;13.776;2023-06-10T03:36:10;14.50;99.90
22167;DHT22;11249;52.468;13.776;2023-06-10T03:38:37;14.60;99.90
22167;DHT22;11249;52.468;13.776;2023-06-10T03:41:03;14.60;99.90
22167;DHT22;11249;52.468;13.776;2023-06-10T03:43:30;14.60;99.90
22167;DHT22;11249;52.468;13.776;2023-06-10T03:45:57;14.60;99.90
22167;DHT22;11249;52.468;13.776;2023-06-10T03:48:25;14.60;99.90
22167;DHT22;11249;52.468;13.776;2023-06-10T03:50:51;14.70;99.90
22167;DHT22;11249;52.468;13.776;2023-06-10T03:53:18;14.70;99.90
22167;DHT22;11249;52.468;13.776;2023-06-10T03:55:45;14.70;99.90
22167;DHT22;11249;52.468;13.776;2023-06-10T03:58:12;14.70;99.90
22167;DHT22;11249;52.468;13.776;2023-06-10T04:00:41;14.80;99.90
22167;DHT22;11249;52.468;13.776;2023-06-10T04:03:09;14.80;99.90
22167;DHT22;11249;52.468;13.776;2023-06-10T04:05:41;14.80;99.90
22167;DHT22;11249;52.468;13.776;2023-06-10T04:08:08;14.90;99.90
22167;DHT22;11249;52.468;13.776;2023-06-10T04:10:35;14.90;99.90
22167;DHT22;11249;52.468;13.776;2023-06-10T04:13:02;15.00;99.90
22167;DHT22;11249;52.468;13.776;2023-06-10T04:15:30;15.00;99.90
22167;DHT22;11249;52.468;13.776;2023-06-10T04:17:59;15.10;99.90
22167;DHT22;11249;52.468;13.776;2023-06-10T04:20:27;15.20;99.90
22167;DHT22;11249;52.468;13.776;2023-06-10T04:22:54;15.30;99.90
22167;DHT22;11249;52.468;13.776;2023-06-10T04:25:21;15.40;99.90
22167;DHT22;11249;52.468;13.776;2023-06-10T04:27:48;15.50;99.90
22167;DHT22;11249;52.468;13.776;2023-06-10T04:30:15;15.60;99.90
22167;DHT22;11249;52.468;13.776;2023-06-10T04:32:42;15.70;99.90
22167;DHT22;11249;52.468;13.776;2023-06-10T04:35:11;15.80;99.90
22167;DHT22;11249;52.468;13.776;2023-06-10T04:37:39;16.00;99.90
22167;DHT22;11249;52.468;13.776;2023-06-10T04:40:07;16.10;99.90
22167;DHT22;11249;52.468;13.776;2023-06-10T04:42:34;16.30;99.90
22167;DHT22;11249;52.468;13.776;2023-06-10T04:45:01;16.40;99.90
22167;DHT22;11249;52.468;13.776;2023-06-10T04:47:29;16.50;99.90
22167;DHT22;11249;52.468;13.776;2023-06-10T04:50:00;16.60;99.90
22167;DHT22;11249;52.468;13.776;2023-06-10T04:52:27;16.70;99.90
22167;DHT22;11249;52.468;13.776;2023-06-10T04:54:54;16.80;99.90
22167;DHT22;11249;52.468;13.776;2023-06-10T04:57:21;17.00;99.90
22167;DHT22;11249;52.468;13.776;2023-06-10T04:59:48;17.10;99.90
22167;DHT22;11249;52.468;13.776;2023-06-10T05:02:15;17.20;99.90
22167;DHT22;11249;52.468;13.776;2023-06-10T05:04:42;17.30;99.90
22167;DHT22;11249;52.468;13.776;2023-06-10T05:07:09;17.40;99.90
22167;DHT22;11249;52.468;13.776;2023-06-10T05:09:35;17.50;99.90
22167;DHT22;11249;52.468;13.776;2023-06-10T05:12:04;17.50;99.90
22167;DHT22;11249;52.468;13.776;2023-06-10T05:14:32;17.60;99.90
22167;DHT22;11249;52.468;13.776;2023-06-10T05:16:58;17.50;99.90
22167;DHT22;11249;52.468;13.776;2023-06-10T05:19:25;17.50;99.90
22167;DHT22;11249;52.468;13.776;2023-06-10T05:21:52;17.40;99.90
22167;DHT22;11249;52.468;13.776;2023-06-10T05:24:18;17.40;99.90
22167;DHT22;11249;52.468;13.776;2023-06-10T05:26:46;17.40;99.90
22167;DHT22;11249;52.468;13.776;2023-06-10T05:29:13;17.40;99.90
22167;DHT22;11249;52.468;13.776;2023-06-10T05:31:42;17.50;99.90
22167;DHT22;11249;52.468;13.776;2023-06-10T05:34:09;17.60;99.90
22167;DHT22;11249;52.468;13.776;2023-06-10T05:36:35;17.70;99.90
22167;DHT22;11249;52.468;13.776;2023-06-10T05:39:02;17.80;99.90
22167;DHT22;11249;52.468;13.776;2023-06-10T05:41:29;17.90;99.90
22167;DHT22;11249;52.468;13.776;2023-06-10T05:43:56;17.90;99.90
22167;DHT22;11249;52.468;13.776;2023-06-10T05:46:23;18.00;99.90
22167;DHT22;11249;52.468;13.776;2023-06-10T05:48:50;18.00;99.90
22167;DHT22;11249;52.468;13.776;2023-06-10T05:51:17;18.00;99.90
22167;DHT22;11249;52.468;13.776;2023-06-10T05:53:44;18.10;99.90
22167;DHT22;11249;52.468;13.776;2023-06-10T05:56:14;18.10;99.90
22167;DHT22;11249;52.468;13.776;2023-06-10T05:58:41;18.10;99.90
22167;DHT22;11249;52.468;13.776;2023-06-10T06:01:07;18.10;99.90
22167;DHT22;11249;52.468;13.776;2023-06-10T06:03:34;18.20;99.90
22167;DHT22;11249;52.468;13.776;2023-06-10T06:06:02;18.30;99.90
22167;DHT22;11249;52.468;13.776;2023-06-10T06:08:29;18.40;99.90
22167;DHT22;11249;52.468;13.776;2023-06-10T06:10:57;18.60;99.90
22167;DHT22;11249;52.468;13.776;2023-06-10T06:13:23;18.80;99.90
22167;DHT22;11249;52.468;13.776;2023-06-10T06:15:50;18.90;99.90
22167;DHT22;11249;52.468;13.776;2023-06-10T06:18:17;19.10;99.90
22167;DHT22;11249;52.468;13.776;2023-06-10T06:20:45;19.30;99.90
22167;DHT22;11249;52.468;13.776;2023-06-10T06:23:12;19.50;99.90
22167;DHT22;11249;52.468;13.776;2023-06-10T06:25:39;19.60;99.90
22167;DHT22;11249;52.468;13.776;2023-06-10T06:28:06;19.60;99.90
22167;DHT22;11249;52.468;13.776;2023-06-10T06:30:34;19.80;99.90
22167;DHT22;11249;52.468;13.776;2023-06-10T06:33:01;19.80;99.90
22167;DHT22;11249;52.468;13.776;2023-06-10T06:35:31;20.00;99.90
22167;DHT22;11249;52.468;13.776;2023-06-10T06:37:58;20.00;99.90
22167;DHT22;11249;52.468;13.776;2023-06-10T06:40:25;20.20;99.90
22167;DHT22;11249;52.468;13.776;2023-06-10T06:42:52;20.30;99.90
22167;DHT22;11249;52.468;13.776;2023-06-10T06:45:19;20.40;99.90
22167;DHT22;11249;52.468;13.776;2023-06-10T06:47:46;20.50;99.90
22167;DHT22;11249;52.468;13.776;2023-06-10T06:50:12;20.60;99.90
22167;DHT22;11249;52.468;13.776;2023-06-10T06:52:39;20.70;99.90
22167;DHT22;11249;52.468;13.776;2023-06-10T06:55:06;20.80;99.90
22167;DHT22;11249;52.468;13.776;2023-06-10T06:57:34;20.80;99.90
22167;DHT22;11249;52.468;13.776;2023-06-10T07:00:01;21.00;99.90
22167;DHT22;11249;52.468;13.776;2023-06-10T07:02:27;21.10;99.90
22167;DHT22;11249;52.468;13.776;2023-06-10T07:04:54;21.00;99.90
22167;DHT22;11249;52.468;13.776;2023-06-10T07:07:22;21.20;99.90
22167;DHT22;11249;52.468;13.776;2023-06-10T07:09:49;21.20;99.90
22167;DHT22;11249;52.468;13.776;2023-06-10T07:12:16;21.30;99.90
22167;DHT22;11249;52.468;13.776;2023-06-10T07:14:44;21.40;99.90
22167;DHT22;11249;52.468;13.776;2023-06-10T07:17:11;21.50;99.90
22167;DHT22;11249;52.468;13.776;2023-06-10T07:19:37;21.50;99.90
22167;DHT22;11249;52.468;13.776;2023-06-10T07:22:04;21.70;99.90
22167;DHT22;11249;52.468;13.776;2023-06-10T07:24:31;21.70;99.90
22167;DHT22;11249;52.468;13.776;2023-06-10T07:26:58;21.70;99.90
22167;DHT22;11249;52.468;13.776;2023-06-10T07:29:24;21.70;99.90
22167;DHT22;11249;52.468;13.776;2023-06-10T07:31:51;21.80;99.90
22167;DHT22;11249;52.468;13.776;2023-06-10T07:34:19;21.70;99.90
22167;DHT22;11249;52.468;13.776;2023-06-10T07:36:46;21.80;99.90
22167;DHT22;11249;52.468;13.776;2023-06-10T07:39:13;21.90;99.90
22167;DHT22;11249;52.468;13.776;2023-06-10T07:41:40;22.00;99.90
22167;DHT22;11249;52.468;13.776;2023-06-10T07:44:06;22.10;99.90
22167;DHT22;11249;52.468;13.776;2023-06-10T07:46:33;22.20;99.90
22167;DHT22;11249;52.468;13.776;2023-06-10T07:49:00;22.50;99.90
22167;DHT22;11249;52.468;13.776;2023-06-10T07:51:26;22.70;99.90
22167;DHT22;11249;52.468;13.776;2023-06-10T07:53:53;23.00;99.90
22167;DHT22;11249;52.468;13.776;2023-06-10T07:56:20;22.90;99.90
22167;DHT22;11249;52.468;13.776;2023-06-10T07:58:48;23.10;99.90
22167;DHT22;11249;52.468;13.776;2023-06-10T08:01:14;23.20;99.90
22167;DHT22;11249;52.468;13.776;2023-06-10T08:03:42;23.40;99.90
22167;DHT22;11249;52.468;13.776;2023-06-10T08:06:09;23.40;99.90
22167;DHT22;11249;52.468;13.776;2023-06-10T08:08:38;23.50;99.90
22167;DHT22;11249;52.468;13.776;2023-06-10T08:11:11;23.70;99.90
22167;DHT22;11249;52.468;13.776;2023-06-10T08:13:37;23.70;99.90
22167;DHT22;11249;52.468;13.776;2023-06-10T08:16:04;23.60;99.90
22167;DHT22;11249;52.468;13.776;2023-06-10T08:18:31;23.40;99.90
22167;DHT22;11249;52.468;13.776;2023-06-10T08:20:58;23.40;99.90
22167;DHT22;11249;52.468;13.776;2023-06-10T08:23:25;23.40;99.90
22167;DHT22;11249;52.468;13.776;2023-06-10T08:25:51;23.50;99.90
22167;DHT22;11249;52.468;13.776;2023-06-10T08:28:18;23.50;99.90
22167;DHT22;11249;52.468;13.776;2023-06-10T08:30:45;23.70;99.90
22167;DHT22;11249;52.468;13.776;2023-06-10T08:33:12;23.80;99.90
22167;DHT22;11249;52.468;13.776;2023-06-10T08:35:39;23.90;99.90
22167;DHT22;11249;52.468;13.776;2023-06-10T08:38:05;23.90;99.90
22167;DHT22;11249;52.468;13.776;2023-06-10T08:40:33;24.00;99.90
22167;DHT22;11249;52.468;13.776;2023-06-10T08:43:07;24.20;99.90
22167;DHT22;11249;52.468;13.776;2023-06-10T08:45:36;24.30;99.90
22167;DHT22;11249;52.468;13.776;2023-06-10T08:48:06;24.50;99.90
22167;DHT22;11249;52.468;13.776;2023-06-10T08:50:35;24.70;99.90
22167;DHT22;11249;52.468;13.776;2023-06-10T08:53:05;24.80;99.90
22167;DHT22;11249;52.468;13.776;2023-06-10T08:55:35;25.00;99.90
22167;DHT22;11249;52.468;13.776;2023-06-10T08:58:03;25.20;99.90
22167;DHT22;11249;52.468;13.776;2023-06-10T09:00:31;25.40;99.90
22167;DHT22;11249;52.468;13.776;2023-06-10T09:02:59;25.70;99.90
22167;DHT22;11249;52.468;13.776;2023-06-10T09:05:33;26.00;99.90
22167;DHT22;11249;52.468;13.776;2023-06-10T09:08:00;26.30;99.90
22167;DHT22;11249;52.468;13.776;2023-06-10T09:10:27;26.40;99.90
22167;DHT22;11249;52.468;13.776;2023-06-10T09:12:54;26.60;99.90
22167;DHT22;11249;52.468;13.776;2023-06-10T09:15:21;26.80;99.90
22167;DHT22;11249;52.468;13.776;2023-06-10T09:17:48;26.90;99.90
22167;DHT22;11249;52.468;13.776;2023-06-10T09:20:14;27.20;99.90
22167;DHT22;11249;52.468;13.776;2023-06-10T09:22:42;27.10;99.90
22167;DHT22;11249;52.468;13.776;2023-06-10T09:25:13;27.50;99.90
22167;DHT22;11249;52.468;13.776;2023-06-10T09:27:51;27.50;99.90
22167;DHT22;11249;52.468;13.776;2023-06-10T09:30:31;27.60;99.90
22167;DHT22;11249;52.468;13.776;2023-06-10T09:33:00;27.60;99.90
22167;DHT22;11249;52.468;13.776;2023-06-10T09:35:28;27.40;99.90
22167;DHT22;11249;52.468;13.776;2023-06-10T09:37:59;27.40;99.90
22167;DHT22;11249;52.468;13.776;2023-06-10T09:40:26;27.30;99.90
22167;DHT22;11249;52.468;13.776;2023-06-10T09:42:56;27.20;99.90
22167;DHT22;11249;52.468;13.776;2023-06-10T09:45:29;27.50;99.90
22167;DHT22;11249;52.468;13.776;2023-06-10T09:47:56;27.80;99.90
22167;DHT22;11249;52.468;13.776;2023-06-10T09:50:23;28.10;99.90
22167;DHT22;11249;52.468;13.776;2023-06-10T09:52:50;28.00;99.90
22167;DHT22;11249;52.468;13.776;2023-06-10T09:55:17;28.00;99.90
22167;DHT22;11249;52.468;13.776;2023-06-10T09:57:44;27.70;99.90
22167;DHT22;11249;52.468;13.776;2023-06-10T10:00:15;27.60;99.90
22167;DHT22;11249;52.468;13.776;2023-06-10T10:02:49;27.50;99.90
22167;DHT22;11249;52.468;13.776;2023-06-10T10:05:18;27.60;99.90
22167;DHT22;11249;52.468;13.776;2023-06-10T10:07:46;27.70;99.90
22167;DHT22;11249;52.468;13.776;2023-06-10T10:10:14;27.30;99.90
22167;DHT22;11249;52.468;13.776;2023-06-10T10:12:42;27.40;99.90
22167;DHT22;11249;52.468;13.776;2023-06-10T10:15:10;27.70;99.90
22167;DHT22;11249;52.468;13.776;2023-06-10T10:17:40;27.60;99.90
22167;DHT22;11249;52.468;13.776;2023-06-10T10:20:12;28.00;99.90
22167;DHT22;11249;52.468;13.776;2023-06-10T10:22:40;28.30;99.90
22167;DHT22;11249;52.468;13.776;2023-06-10T10:25:12;28.40;99.90
22167;DHT22;11249;52.468;13.776;2023-06-10T10:27:50;28.30;99.90
22167;DHT22;11249;52.468;13.776;2023-06-10T10:30:20;28.20;99.90
22167;DHT22;11249;52.468;13.776;2023-06-10T10:32:57;28.40;99.90
22167;DHT22;11249;52.468;13.776;2023-06-10T10:35:25;28.50;99.90
22167;DHT22;11249;52.468;13.776;2023-06-10T10:37:53;28.50;99.90
22167;DHT22;11249;52.468;13.776;2023-06-10T10:40:24;28.80;99.90
22167;DHT22;11249;52.468;13.776;2023-06-10T10:42:51;28.90;99.90
22167;DHT22;11249;52.468;13.776;2023-06-10T10:45:18;29.00;99.90
22167;DHT22;11249;52.468;13.776;2023-06-10T10:47:52;28.90;99.90
22167;DHT22;11249;52.468;13.776;2023-06-10T10:50:20;29.00;99.90
22167;DHT22;11249;52.468;13.776;2023-06-10T10:53:00;29.10;99.90
22167;DHT22;11249;52.468;13.776;2023-06-10T10:55:27;29.20;99.90
22167;DHT22;11249;52.468;13.776;2023-06-10T10:57:59;29.20;99.90
22167;DHT22;11249;52.468;13.776;2023-06-10T11:03:16;29.20;99.90
22167;DHT22;11249;52.468;13.776;2023-06-10T11:05:45;29.10;99.90
22167;DHT22;11249;52.468;13.776;2023-06-10T11:11:23;29.60;99.90
22167;DHT22;11249;52.468;13.776;2023-06-10T11:16:29;30.50;99.90
22167;DHT22;11249;52.468;13.776;2023-06-10T11:18:56;29.90;99.90
22167;DHT22;11249;52.468;13.776;2023-06-10T11:21:24;29.70;99.90
22167;DHT22;11249;52.468;13.776;2023-06-10T11:23:58;29.90;99.90
22167;DHT22;11249;52.468;13.776;2023-06-10T11:31:30;30.40;99.90
22167;DHT22;11249;52.468;13.776;2023-06-10T11:34:02;30.30;99.90
22167;DHT22;11249;52.468;13.776;2023-06-10T11:36:30;30.30;99.90
22167;DHT22;11249;52.468;13.776;2023-06-10T11:38:58;30.00;99.90
22167;DHT22;11249;52.468;13.776;2023-06-10T11:41:27;30.30;99.90
22167;DHT22;11249;52.468;13.776;2023-06-10T11:43:56;30.00;99.90
22167;DHT22;11249;52.468;13.776;2023-06-10T11:46:23;30.30;99.90
22167;DHT22;11249;52.468;13.776;2023-06-10T11:48:54;31.00;99.90
22167;DHT22;11249;52.468;13.776;2023-06-10T11:51:24;31.00;99.90
22167;DHT22;11249;52.468;13.776;2023-06-10T11:53:52;30.90;99.90
22167;DHT22;11249;52.468;13.776;2023-06-10T11:56:20;30.70;99.90
22167;DHT22;11249;52.468;13.776;2023-06-10T11:58:55;31.30;99.90
22167;DHT22;11249;52.468;13.776;2023-06-10T12:01:25;32.10;99.90
22167;DHT22;11249;52.468;13.776;2023-06-10T12:06:45;31.40;99.90
22167;DHT22;11249;52.468;13.776;2023-06-10T12:09:24;32.30;99.90
22167;DHT22;11249;52.468;13.776;2023-06-10T12:12:00;32.20;99.90
22167;DHT22;11249;52.468;13.776;2023-06-10T12:17:16;31.70;99.90
22167;DHT22;11249;52.468;13.776;2023-06-10T12:19:43;31.40;99.90
22167;DHT22;11249;52.468;13.776;2023-06-10T12:22:09;31.10;99.90
22167;DHT22;11249;52.468;13.776;2023-06-10T12:24:57;31.00;99.90
22167;DHT22;11249;52.468;13.776;2023-06-10T12:27:28;31.10;99.90
22167;DHT22;11249;52.468;13.776;2023-06-10T12:29:58;31.30;99.90
22167;DHT22;11249;52.468;13.776;2023-06-10T12:32:37;31.60;99.90
22167;DHT22;11249;52.468;13.776;2023-06-10T12:35:05;31.80;97.60
22167;DHT22;11249;52.468;13.776;2023-06-10T12:37:32;32.30;96.40
22167;DHT22;11249;52.468;13.776;2023-06-10T12:40:08;33.30;95.30
22167;DHT22;11249;52.468;13.776;2023-06-10T12:42:36;33.90;93.40
22167;DHT22;11249;52.468;13.776;2023-06-10T12:45:04;34.50;92.50
22167;DHT22;11249;52.468;13.776;2023-06-10T12:47:36;34.10;91.40
22167;DHT22;11249;52.468;13.776;2023-06-10T12:50:05;33.60;91.50
22167;DHT22;11249;52.468;13.776;2023-06-10T12:52:32;32.80;91.40
22167;DHT22;11249;52.468;13.776;2023-06-10T12:54:59;33.00;91.80
22167;DHT22;11249;52.468;13.776;2023-06-10T12:57:27;33.00;91.60
22167;DHT22;11249;52.468;13.776;2023-06-10T12:59:54;33.70;91.80
22167;DHT22;11249;52.468;13.776;2023-06-10T13:02:23;33.60;90.50
22167;DHT22;11249;52.468;13.776;2023-06-10T13:04:51;34.10;91.00
22167;DHT22;11249;52.468;13.776;2023-06-10T13:07:18;34.10;90.20
22167;DHT22;11249;52.468;13.776;2023-06-10T13:09:45;34.20;90.60
22167;DHT22;11249;52.468;13.776;2023-06-10T13:12:15;34.60;90.00
22167;DHT22;11249;52.468;13.776;2023-06-10T13:14:52;35.30;90.20
22167;DHT22;11249;52.468;13.776;2023-06-10T13:17:20;35.30;88.80
22167;DHT22;11249;52.468;13.776;2023-06-10T13:19:49;35.00;87.80
22167;DHT22;11249;52.468;13.776;2023-06-10T13:22:16;34.50;89.00
22167;DHT22;11249;52.468;13.776;2023-06-10T13:24:43;35.00;87.70
22167;DHT22;11249;52.468;13.776;2023-06-10T13:27:10;34.50;88.40
22167;DHT22;11249;52.468;13.776;2023-06-10T13:29:37;34.20;89.00
22167;DHT22;11249;52.468;13.776;2023-06-10T13:32:04;33.70;89.20
22167;DHT22;11249;52.468;13.776;2023-06-10T13:34:30;33.50;89.60
22167;DHT22;11249;52.468;13.776;2023-06-10T13:36:57;33.20;89.30
22167;DHT22;11249;52.468;13.776;2023-06-10T13:39:24;32.70;89.80
22167;DHT22;11249;52.468;13.776;2023-06-10T13:41:51;32.60;89.10
22167;DHT22;11249;52.468;13.776;2023-06-10T13:44:18;32.60;89.70
22167;DHT22;11249;52.468;13.776;2023-06-10T13:46:45;32.80;89.10
22167;DHT22;11249;52.468;13.776;2023-06-10T13:49:15;32.90;89.30
22167;DHT22;11249;52.468;13.776;2023-06-10T13:51:42;33.90;88.90
22167;DHT22;11249;52.468;13.776;2023-06-10T13:54:09;34.90;86.80
22167;DHT22;11249;52.468;13.776;2023-06-10T13:56:36;35.70;85.90
22167;DHT22;11249;52.468;13.776;2023-06-10T13:59:05;35.00;84.20
22167;DHT22;11249;52.468;13.776;2023-06-10T14:01:32;35.10;83.60
22167;DHT22;11249;52.468;13.776;2023-06-10T14:03:59;34.40;83.00
22167;DHT22;11249;52.468;13.776;2023-06-10T14:06:26;34.00;82.80
22167;DHT22;11249;52.468;13.776;2023-06-10T14:08:53;34.20;82.40
22167;DHT22;11249;52.468;13.776;2023-06-10T14:11:21;35.20;82.40
22167;DHT22;11249;52.468;13.776;2023-06-10T14:13:47;35.00;82.60
22167;DHT22;11249;52.468;13.776;2023-06-10T14:16:14;35.70;83.50
22167;DHT22;11249;52.468;13.776;2023-06-10T14:18:41;36.30;81.60
22167;DHT22;11249;52.468;13.776;2023-06-10T14:21:08;36.00;80.20
22167;DHT22;11249;52.468;13.776;2023-06-10T14:23:34;35.70;81.10
22167;DHT22;11249;52.468;13.776;2023-06-10T14:26:02;35.20;80.00
22167;DHT22;11249;52.468;13.776;2023-06-10T14:28:29;34.50;81.10
22167;DHT22;11249;52.468;13.776;2023-06-10T14:30:56;34.80;81.30
22167;DHT22;11249;52.468;13.776;2023-06-10T14:33:24;35.20;79.80
22167;DHT22;11249;52.468;13.776;2023-06-10T14:35:51;35.20;79.30
22167;DHT22;11249;52.468;13.776;2023-06-10T14:38:17;35.30;78.70
22167;DHT22;11249;52.468;13.776;2023-06-10T14:40:45;34.70;78.50
22167;DHT22;11249;52.468;13.776;2023-06-10T14:43:12;34.60;79.00
22167;DHT22;11249;52.468;13.776;2023-06-10T14:45:39;34.50;78.90
22167;DHT22;11249;52.468;13.776;2023-06-10T14:48:07;34.60;79.20
22167;DHT22;11249;52.468;13.776;2023-06-10T14:50:37;34.80;77.00
22167;DHT22;11249;52.468;13.776;2023-06-10T14:53:05;34.70;77.00
22167;DHT22;11249;52.468;13.776;2023-06-10T14:55:31;34.70;77.20
22167;DHT22;11249;52.468;13.776;2023-06-10T14:57:58;34.40;76.80
22167;DHT22;11249;52.468;13.776;2023-06-10T15:00:25;35.00;77.00
22167;DHT22;11249;52.468;13.776;2023-06-10T15:02:52;35.30;75.20
22167;DHT22;11249;52.468;13.776;2023-06-10T15:05:20;35.70;73.70
22167;DHT22;11249;52.468;13.776;2023-06-10T15:07:47;35.50;73.00
22167;DHT22;11249;52.468;13.776;2023-06-10T15:10:14;34.10;74.20
22167;DHT22;11249;52.468;13.776;2023-06-10T15:12:42;34.10;74.30
22167;DHT22;11249;52.468;13.776;2023-06-10T15:15:09;33.80;74.50
22167;DHT22;11249;52.468;13.776;2023-06-10T15:17:37;33.70;75.00
22167;DHT22;11249;52.468;13.776;2023-06-10T15:20:04;33.80;74.50
22167;DHT22;11249;52.468;13.776;2023-06-10T15:22:31;34.10;74.00
22167;DHT22;11249;52.468;13.776;2023-06-10T15:25:01;34.30;73.80
22167;DHT22;11249;52.468;13.776;2023-06-10T15:27:42;33.80;72.10
22167;DHT22;11249;52.468;13.776;2023-06-10T15:30:09;34.10;73.10
22167;DHT22;11249;52.468;13.776;2023-06-10T15:32:36;33.60;72.40
22167;DHT22;11249;52.468;13.776;2023-06-10T15:35:03;34.40;72.80
22167;DHT22;11249;52.468;13.776;2023-06-10T15:37:30;35.00;71.50
22167;DHT22;11249;52.468;13.776;2023-06-10T15:39:57;35.30;70.90